Falun, Kansas
Current Conditions -  °F | °C
As of 3:53 AM on Sunday 23 Nov 2014 (Local Time) from KSLN Reporting Station
Overcast Overcast  
Wind Chill: 54°   Ceiling: 1200
Heat Index: 54°   Visibility: 10mi
Dew Point: 50°   Wind: 13mph
Humidity: 86%   Direction: 180°S
Pressure: 29.45"   Gusts: NA
Location:  38.67°N, 97.76°W
Report Text: KSLN 230953Z AUTO 18011KT 10SM OVC012 12/10 A2945 RMK AO2 PK WND 20029/0933 PRESFR SLP969 T01220100
Loading
Personal Weather Stations






























Interactive Weather Map New forecast layout! Learn more

10-Day Weather Forecast

Advertisements
Track Severe Weather on mobile